sensor_id;sensor_type;location;lat;lon;timestamp;P1;durP1;ratioP1;P2;durP2;ratioP2
9248;SDS011;4660;41.768;26.198;2023-10-19T00:00:46;7.37;;;5.27;;
9248;SDS011;4660;41.768;26.198;2023-10-19T00:03:16;6.00;;;4.13;;
9248;SDS011;4660;41.768;26.198;2023-10-19T00:05:45;3.73;;;3.10;;
9248;SDS011;4660;41.768;26.198;2023-10-19T00:08:12;2.77;;;2.20;;
9248;SDS011;4660;41.768;26.198;2023-10-19T00:10:38;5.73;;;1.90;;
9248;SDS011;4660;41.768;26.198;2023-10-19T00:13:05;7.03;;;2.27;;
9248;SDS011;4660;41.768;26.198;2023-10-19T00:15:32;3.17;;;1.80;;
9248;SDS011;4660;41.768;26.198;2023-10-19T00:18:00;3.67;;;2.10;;
9248;SDS011;4660;41.768;26.198;2023-10-19T00:20:54;2.30;;;1.73;;
9248;SDS011;4660;41.768;26.198;2023-10-19T00:23:23;2.73;;;1.87;;
9248;SDS011;4660;41.768;26.198;2023-10-19T00:26:00;4.37;;;2.00;;
9248;SDS011;4660;41.768;26.198;2023-10-19T00:28:33;3.37;;;1.70;;
9248;SDS011;4660;41.768;26.198;2023-10-19T00:31:00;2.27;;;1.87;;
9248;SDS011;4660;41.768;26.198;2023-10-19T00:33:29;2.57;;;1.77;;
9248;SDS011;4660;41.768;26.198;2023-10-19T00:35:59;1.77;;;1.53;;
9248;SDS011;4660;41.768;26.198;2023-10-19T00:38:31;2.93;;;2.00;;
9248;SDS011;4660;41.768;26.198;2023-10-19T00:41:07;2.10;;;1.63;;
9248;SDS011;4660;41.768;26.198;2023-10-19T00:43:37;3.27;;;1.90;;
9248;SDS011;4660;41.768;26.198;2023-10-19T00:46:07;4.63;;;2.20;;
9248;SDS011;4660;41.768;26.198;2023-10-19T00:49:01;2.37;;;1.63;;
9248;SDS011;4660;41.768;26.198;2023-10-19T00:51:35;2.70;;;1.73;;
9248;SDS011;4660;41.768;26.198;2023-10-19T00:54:33;4.70;;;1.60;;
9248;SDS011;4660;41.768;26.198;2023-10-19T00:57:01;3.97;;;1.43;;
9248;SDS011;4660;41.768;26.198;2023-10-19T00:59:39;3.00;;;1.90;;
9248;SDS011;4660;41.768;26.198;2023-10-19T01:02:18;3.50;;;1.50;;
9248;SDS011;4660;41.768;26.198;2023-10-19T01:04:50;2.27;;;1.40;;
9248;SDS011;4660;41.768;26.198;2023-10-19T01:07:26;2.27;;;1.63;;
9248;SDS011;4660;41.768;26.198;2023-10-19T01:09:53;4.63;;;1.80;;
9248;SDS011;4660;41.768;26.198;2023-10-19T01:12:29;3.53;;;1.77;;
9248;SDS011;4660;41.768;26.198;2023-10-19T01:17:38;2.77;;;1.40;;
9248;SDS011;4660;41.768;26.198;2023-10-19T01:20:09;2.27;;;1.50;;
9248;SDS011;4660;41.768;26.198;2023-10-19T01:22:47;2.75;;;1.52;;
9248;SDS011;4660;41.768;26.198;2023-10-19T01:25:15;4.77;;;1.83;;
9248;SDS011;4660;41.768;26.198;2023-10-19T01:27:49;2.07;;;1.77;;
9248;SDS011;4660;41.768;26.198;2023-10-19T01:30:20;2.00;;;1.60;;
9248;SDS011;4660;41.768;26.198;2023-10-19T01:32:46;2.47;;;1.80;;
9248;SDS011;4660;41.768;26.198;2023-10-19T01:35:11;3.23;;;2.00;;
9248;SDS011;4660;41.768;26.198;2023-10-19T01:37:37;4.30;;;1.70;;
9248;SDS011;4660;41.768;26.198;2023-10-19T01:40:03;3.57;;;2.00;;
9248;SDS011;4660;41.768;26.198;2023-10-19T01:42:29;5.67;;;1.80;;
9248;SDS011;4660;41.768;26.198;2023-10-19T01:44:56;2.43;;;1.70;;
9248;SDS011;4660;41.768;26.198;2023-10-19T01:47:21;4.47;;;2.90;;
9248;SDS011;4660;41.768;26.198;2023-10-19T01:49:47;4.50;;;2.83;;
9248;SDS011;4660;41.768;26.198;2023-10-19T01:52:17;4.47;;;3.17;;
9248;SDS011;4660;41.768;26.198;2023-10-19T01:54:43;6.17;;;2.63;;
9248;SDS011;4660;41.768;26.198;2023-10-19T01:57:08;5.37;;;2.67;;
9248;SDS011;4660;41.768;26.198;2023-10-19T01:59:34;8.32;;;3.35;;
9248;SDS011;4660;41.768;26.198;2023-10-19T02:02:00;5.50;;;3.30;;
9248;SDS011;4660;41.768;26.198;2023-10-19T02:04:27;4.20;;;2.93;;
9248;SDS011;4660;41.768;26.198;2023-10-19T02:06:53;5.67;;;3.03;;
9248;SDS011;4660;41.768;26.198;2023-10-19T02:09:18;4.77;;;3.37;;
9248;SDS011;4660;41.768;26.198;2023-10-19T02:11:59;4.00;;;2.87;;
9248;SDS011;4660;41.768;26.198;2023-10-19T02:14:27;5.27;;;3.70;;
9248;SDS011;4660;41.768;26.198;2023-10-19T02:16:57;6.00;;;3.63;;
9248;SDS011;4660;41.768;26.198;2023-10-19T02:19:27;5.03;;;3.30;;
9248;SDS011;4660;41.768;26.198;2023-10-19T02:21:54;4.83;;;2.60;;
9248;SDS011;4660;41.768;26.198;2023-10-19T02:24:28;5.43;;;2.88;;
9248;SDS011;4660;41.768;26.198;2023-10-19T02:26:55;4.27;;;2.03;;
9248;SDS011;4660;41.768;26.198;2023-10-19T02:29:22;4.27;;;2.50;;
9248;SDS011;4660;41.768;26.198;2023-10-19T02:31:48;4.07;;;2.40;;
9248;SDS011;4660;41.768;26.198;2023-10-19T02:34:14;5.17;;;2.80;;
9248;SDS011;4660;41.768;26.198;2023-10-19T02:36:40;5.40;;;2.63;;
9248;SDS011;4660;41.768;26.198;2023-10-19T02:39:09;5.80;;;2.10;;
9248;SDS011;4660;41.768;26.198;2023-10-19T02:41:39;2.50;;;1.57;;
9248;SDS011;4660;41.768;26.198;2023-10-19T02:44:17;5.13;;;1.80;;
9248;SDS011;4660;41.768;26.198;2023-10-19T02:46:44;2.80;;;1.90;;
9248;SDS011;4660;41.768;26.198;2023-10-19T02:49:11;5.30;;;2.10;;
9248;SDS011;4660;41.768;26.198;2023-10-19T02:51:39;3.13;;;1.70;;
9248;SDS011;4660;41.768;26.198;2023-10-19T02:54:09;4.17;;;1.60;;
9248;SDS011;4660;41.768;26.198;2023-10-19T02:56:43;3.93;;;2.00;;
9248;SDS011;4660;41.768;26.198;2023-10-19T02:59:12;1.90;;;1.47;;
9248;SDS011;4660;41.768;26.198;2023-10-19T03:01:41;1.93;;;1.67;;
9248;SDS011;4660;41.768;26.198;2023-10-19T03:04:09;1.93;;;1.60;;
9248;SDS011;4660;41.768;26.198;2023-10-19T03:06:37;2.33;;;1.67;;
9248;SDS011;4660;41.768;26.198;2023-10-19T03:09:05;3.40;;;1.80;;
9248;SDS011;4660;41.768;26.198;2023-10-19T03:11:41;3.63;;;1.60;;
9248;SDS011;4660;41.768;26.198;2023-10-19T03:14:09;2.13;;;1.77;;
9248;SDS011;4660;41.768;26.198;2023-10-19T03:16:36;2.53;;;1.90;;
9248;SDS011;4660;41.768;26.198;2023-10-19T03:19:02;2.30;;;1.80;;
9248;SDS011;4660;41.768;26.198;2023-10-19T03:21:29;2.87;;;2.10;;
9248;SDS011;4660;41.768;26.198;2023-10-19T03:23:59;2.07;;;1.87;;
9248;SDS011;4660;41.768;26.198;2023-10-19T03:26:37;2.28;;;1.98;;
9248;SDS011;4660;41.768;26.198;2023-10-19T03:29:05;5.73;;;2.27;;
9248;SDS011;4660;41.768;26.198;2023-10-19T03:31:37;3.43;;;2.67;;
9248;SDS011;4660;41.768;26.198;2023-10-19T03:34:12;1.97;;;1.77;;
9248;SDS011;4660;41.768;26.198;2023-10-19T03:36:38;13.67;;;2.43;;
9248;SDS011;4660;41.768;26.198;2023-10-19T03:39:04;16.73;;;2.07;;
9248;SDS011;4660;41.768;26.198;2023-10-19T03:41:42;9.67;;;2.90;;
9248;SDS011;4660;41.768;26.198;2023-10-19T03:44:13;29.47;;;3.30;;
9248;SDS011;4660;41.768;26.198;2023-10-19T03:46:47;4.30;;;3.37;;
9248;SDS011;4660;41.768;26.198;2023-10-19T03:49:40;3.90;;;2.93;;
9248;SDS011;4660;41.768;26.198;2023-10-19T03:52:07;20.58;;;3.90;;
9248;SDS011;4660;41.768;26.198;2023-10-19T03:54:36;9.33;;;3.90;;
9248;SDS011;4660;41.768;26.198;2023-10-19T03:57:06;18.10;;;4.60;;
9248;SDS011;4660;41.768;26.198;2023-10-19T03:59:40;29.37;;;6.10;;
9248;SDS011;4660;41.768;26.198;2023-10-19T04:02:06;32.57;;;5.97;;
9248;SDS011;4660;41.768;26.198;2023-10-19T04:04:42;21.80;;;5.83;;
9248;SDS011;4660;41.768;26.198;2023-10-19T04:07:14;22.10;;;5.57;;
9248;SDS011;4660;41.768;26.198;2023-10-19T04:09:53;13.40;;;5.27;;
9248;SDS011;4660;41.768;26.198;2023-10-19T04:12:32;37.83;;;4.60;;
9248;SDS011;4660;41.768;26.198;2023-10-19T04:15:01;8.83;;;4.20;;
9248;SDS011;4660;41.768;26.198;2023-10-19T04:17:46;29.53;;;4.33;;
9248;SDS011;4660;41.768;26.198;2023-10-19T04:20:14;9.67;;;3.30;;
9248;SDS011;4660;41.768;26.198;2023-10-19T04:22:41;6.70;;;3.37;;
9248;SDS011;4660;41.768;26.198;2023-10-19T04:25:07;10.57;;;2.47;;
9248;SDS011;4660;41.768;26.198;2023-10-19T04:27:33;10.53;;;2.80;;
9248;SDS011;4660;41.768;26.198;2023-10-19T04:30:01;21.03;;;3.30;;
9248;SDS011;4660;41.768;26.198;2023-10-19T04:32:27;52.90;;;4.93;;
9248;SDS011;4660;41.768;26.198;2023-10-19T04:34:53;12.57;;;3.03;;
9248;SDS011;4660;41.768;26.198;2023-10-19T04:37:19;12.50;;;3.00;;
9248;SDS011;4660;41.768;26.198;2023-10-19T04:39:45;8.33;;;2.87;;
9248;SDS011;4660;41.768;26.198;2023-10-19T04:42:11;5.97;;;3.23;;
9248;SDS011;4660;41.768;26.198;2023-10-19T04:44:37;12.03;;;3.93;;
9248;SDS011;4660;41.768;26.198;2023-10-19T04:47:03;36.93;;;4.13;;
9248;SDS011;4660;41.768;26.198;2023-10-19T04:49:29;18.70;;;4.00;;
9248;SDS011;4660;41.768;26.198;2023-10-19T04:51:55;12.03;;;4.20;;
9248;SDS011;4660;41.768;26.198;2023-10-19T04:54:20;6.30;;;4.03;;
9248;SDS011;4660;41.768;26.198;2023-10-19T04:56:45;29.57;;;4.93;;
9248;SDS011;4660;41.768;26.198;2023-10-19T04:59:11;14.87;;;4.47;;
9248;SDS011;4660;41.768;26.198;2023-10-19T05:01:37;12.00;;;4.37;;
9248;SDS011;4660;41.768;26.198;2023-10-19T05:04:03;11.43;;;4.60;;
9248;SDS011;4660;41.768;26.198;2023-10-19T05:06:29;21.93;;;4.40;;
9248;SDS011;4660;41.768;26.198;2023-10-19T05:08:55;31.47;;;5.30;;
9248;SDS011;4660;41.768;26.198;2023-10-19T05:11:22;21.73;;;5.03;;
9248;SDS011;4660;41.768;26.198;2023-10-19T05:13:49;31.53;;;5.67;;
9248;SDS011;4660;41.768;26.198;2023-10-19T05:16:15;22.50;;;5.10;;
9248;SDS011;4660;41.768;26.198;2023-10-19T05:18:41;20.97;;;5.47;;
9248;SDS011;4660;41.768;26.198;2023-10-19T05:21:07;11.73;;;4.80;;
9248;SDS011;4660;41.768;26.198;2023-10-19T05:23:32;21.23;;;5.60;;
9248;SDS011;4660;41.768;26.198;2023-10-19T05:26:01;27.60;;;5.10;;
9248;SDS011;4660;41.768;26.198;2023-10-19T05:28:31;20.50;;;4.90;;
9248;SDS011;4660;41.768;26.198;2023-10-19T05:30:57;20.93;;;5.47;;
9248;SDS011;4660;41.768;26.198;2023-10-19T05:33:24;17.53;;;5.43;;
9248;SDS011;4660;41.768;26.198;2023-10-19T05:35:52;21.43;;;5.37;;
9248;SDS011;4660;41.768;26.198;2023-10-19T05:38:17;20.13;;;6.20;;
9248;SDS011;4660;41.768;26.198;2023-10-19T05:40:47;14.27;;;5.23;;
9248;SDS011;4660;41.768;26.198;2023-10-19T05:43:15;7.47;;;4.60;;
9248;SDS011;4660;41.768;26.198;2023-10-19T05:45:41;10.83;;;5.23;;
9248;SDS011;4660;41.768;26.198;2023-10-19T05:48:07;10.43;;;5.10;;
9248;SDS011;4660;41.768;26.198;2023-10-19T05:50:33;8.20;;;4.87;;
9248;SDS011;4660;41.768;26.198;2023-10-19T05:52:59;11.47;;;5.80;;
9248;SDS011;4660;41.768;26.198;2023-10-19T05:55:25;28.40;;;5.70;;
9248;SDS011;4660;41.768;26.198;2023-10-19T05:57:51;13.80;;;5.33;;
9248;SDS011;4660;41.768;26.198;2023-10-19T06:00:17;11.17;;;5.03;;
9248;SDS011;4660;41.768;26.198;2023-10-19T06:02:48;10.37;;;4.90;;
9248;SDS011;4660;41.768;26.198;2023-10-19T06:05:15;15.50;;;5.33;;
9248;SDS011;4660;41.768;26.198;2023-10-19T06:07:41;15.40;;;6.20;;
9248;SDS011;4660;41.768;26.198;2023-10-19T06:10:10;11.00;;;5.87;;
9248;SDS011;4660;41.768;26.198;2023-10-19T06:12:44;9.93;;;5.90;;
9248;SDS011;4660;41.768;26.198;2023-10-19T06:15:13;10.05;;;5.82;;
9248;SDS011;4660;41.768;26.198;2023-10-19T06:17:41;10.23;;;6.20;;
9248;SDS011;4660;41.768;26.198;2023-10-19T06:20:08;8.80;;;5.60;;
9248;SDS011;4660;41.768;26.198;2023-10-19T06:22:49;6.77;;;5.23;;
9248;SDS011;4660;41.768;26.198;2023-10-19T06:25:19;9.90;;;7.37;;
9248;SDS011;4660;41.768;26.198;2023-10-19T06:27:49;8.97;;;6.10;;
9248;SDS011;4660;41.768;26.198;2023-10-19T06:30:15;7.80;;;5.27;;
9248;SDS011;4660;41.768;26.198;2023-10-19T06:32:56;9.13;;;5.37;;
9248;SDS011;4660;41.768;26.198;2023-10-19T06:35:27;8.80;;;5.17;;
9248;SDS011;4660;41.768;26.198;2023-10-19T06:37:54;37.00;;;27.57;;
9248;SDS011;4660;41.768;26.198;2023-10-19T06:40:21;10.90;;;7.50;;
9248;SDS011;4660;41.768;26.198;2023-10-19T06:42:47;7.70;;;5.87;;
9248;SDS011;4660;41.768;26.198;2023-10-19T06:45:14;11.17;;;5.43;;
9248;SDS011;4660;41.768;26.198;2023-10-19T06:47:42;9.90;;;6.07;;
9248;SDS011;4660;41.768;26.198;2023-10-19T06:50:13;7.10;;;5.13;;
9248;SDS011;4660;41.768;26.198;2023-10-19T06:52:45;13.20;;;9.63;;
9248;SDS011;4660;41.768;26.198;2023-10-19T06:55:14;8.50;;;7.20;;
9248;SDS011;4660;41.768;26.198;2023-10-19T06:57:47;6.28;;;5.53;;
9248;SDS011;4660;41.768;26.198;2023-10-19T07:00:21;5.17;;;4.67;;
9248;SDS011;4660;41.768;26.198;2023-10-19T07:02:51;5.13;;;4.60;;
9248;SDS011;4660;41.768;26.198;2023-10-19T07:05:18;5.53;;;4.57;;
9248;SDS011;4660;41.768;26.198;2023-10-19T07:07:50;6.53;;;5.10;;
9248;SDS011;4660;41.768;26.198;2023-10-19T07:10:17;5.43;;;4.87;;
9248;SDS011;4660;41.768;26.198;2023-10-19T07:12:47;5.27;;;4.47;;
9248;SDS011;4660;41.768;26.198;2023-10-19T07:15:52;6.70;;;4.13;;
9248;SDS011;4660;41.768;26.198;2023-10-19T07:18:17;6.93;;;4.60;;
9248;SDS011;4660;41.768;26.198;2023-10-19T07:20:43;5.27;;;4.77;;
9248;SDS011;4660;41.768;26.198;2023-10-19T07:23:13;9.00;;;5.70;;
9248;SDS011;4660;41.768;26.198;2023-10-19T07:25:47;9.43;;;5.40;;
9248;SDS011;4660;41.768;26.198;2023-10-19T07:28:18;9.20;;;6.00;;
9248;SDS011;4660;41.768;26.198;2023-10-19T07:30:44;5.77;;;5.17;;
9248;SDS011;4660;41.768;26.198;2023-10-19T07:33:11;6.53;;;5.00;;
9248;SDS011;4660;41.768;26.198;2023-10-19T07:35:48;14.87;;;5.80;;
9248;SDS011;4660;41.768;26.198;2023-10-19T07:38:21;8.10;;;6.10;;
9248;SDS011;4660;41.768;26.198;2023-10-19T07:40:50;9.50;;;6.30;;
9248;SDS011;4660;41.768;26.198;2023-10-19T07:43:19;15.67;;;7.13;;
9248;SDS011;4660;41.768;26.198;2023-10-19T07:45:48;16.93;;;7.30;;
9248;SDS011;4660;41.768;26.198;2023-10-19T07:48:14;18.77;;;7.30;;
9248;SDS011;4660;41.768;26.198;2023-10-19T07:50:40;19.33;;;8.07;;
9248;SDS011;4660;41.768;26.198;2023-10-19T07:53:05;18.30;;;7.27;;
9248;SDS011;4660;41.768;26.198;2023-10-19T07:55:31;14.50;;;8.03;;
9248;SDS011;4660;41.768;26.198;2023-10-19T07:57:57;14.43;;;6.87;;
9248;SDS011;4660;41.768;26.198;2023-10-19T08:00:25;10.83;;;6.83;;
9248;SDS011;4660;41.768;26.198;2023-10-19T08:02:52;10.10;;;6.10;;
9248;SDS011;4660;41.768;26.198;2023-10-19T08:05:19;10.73;;;5.80;;
9248;SDS011;4660;41.768;26.198;2023-10-19T08:07:45;10.47;;;6.57;;
9248;SDS011;4660;41.768;26.198;2023-10-19T08:10:17;11.73;;;6.70;;
9248;SDS011;4660;41.768;26.198;2023-10-19T08:12:44;11.87;;;6.53;;
9248;SDS011;4660;41.768;26.198;2023-10-19T08:15:15;11.70;;;7.60;;
9248;SDS011;4660;41.768;26.198;2023-10-19T08:17:42;11.63;;;6.37;;
9248;SDS011;4660;41.768;26.198;2023-10-19T08:20:11;13.33;;;5.93;;
9248;SDS011;4660;41.768;26.198;2023-10-19T08:22:44;9.23;;;5.90;;
9248;SDS011;4660;41.768;26.198;2023-10-19T08:25:13;9.77;;;5.97;;
9248;SDS011;4660;41.768;26.198;2023-10-19T08:27:42;7.33;;;5.77;;
9248;SDS011;4660;41.768;26.198;2023-10-19T08:30:15;6.47;;;5.03;;
9248;SDS011;4660;41.768;26.198;2023-10-19T08:32:46;11.80;;;5.87;;
9248;SDS011;4660;41.768;26.198;2023-10-19T08:35:17;9.33;;;5.70;;
9248;SDS011;4660;41.768;26.198;2023-10-19T08:37:50;11.33;;;5.57;;
9248;SDS011;4660;41.768;26.198;2023-10-19T08:40:16;9.10;;;4.90;;
9248;SDS011;4660;41.768;26.198;2023-10-19T08:42:43;7.70;;;5.03;;
9248;SDS011;4660;41.768;26.198;2023-10-19T08:45:11;5.57;;;4.87;;
9248;SDS011;4660;41.768;26.198;2023-10-19T08:47:47;5.87;;;4.30;;
9248;SDS011;4660;41.768;26.198;2023-10-19T08:50:19;6.00;;;4.20;;
9248;SDS011;4660;41.768;26.198;2023-10-19T08:52:54;4.87;;;3.87;;
9248;SDS011;4660;41.768;26.198;2023-10-19T08:55:21;6.57;;;4.07;;
9248;SDS011;4660;41.768;26.198;2023-10-19T08:57:48;5.10;;;4.07;;
9248;SDS011;4660;41.768;26.198;2023-10-19T09:00:15;6.33;;;4.07;;
9248;SDS011;4660;41.768;26.198;2023-10-19T09:02:47;8.00;;;4.50;;
9248;SDS011;4660;41.768;26.198;2023-10-19T09:05:14;5.17;;;3.87;;
9248;SDS011;4660;41.768;26.198;2023-10-19T09:07:50;8.90;;;5.43;;
9248;SDS011;4660;41.768;26.198;2023-10-19T09:10:20;6.27;;;3.97;;
9248;SDS011;4660;41.768;26.198;2023-10-19T09:15:30;5.20;;;4.10;;
9248;SDS011;4660;41.768;26.198;2023-10-19T09:17:58;7.50;;;3.97;;
9248;SDS011;4660;41.768;26.198;2023-10-19T09:20:37;11.33;;;4.00;;
9248;SDS011;4660;41.768;26.198;2023-10-19T09:23:03;4.87;;;4.03;;
9248;SDS011;4660;41.768;26.198;2023-10-19T09:25:28;4.97;;;3.77;;
9248;SDS011;4660;41.768;26.198;2023-10-19T09:27:54;4.90;;;3.80;;
9248;SDS011;4660;41.768;26.198;2023-10-19T09:30:20;4.93;;;3.97;;
9248;SDS011;4660;41.768;26.198;2023-10-19T09:32:48;6.38;;;3.30;;
9248;SDS011;4660;41.768;26.198;2023-10-19T09:35:14;5.83;;;3.30;;
9248;SDS011;4660;41.768;26.198;2023-10-19T09:37:43;4.07;;;3.43;;
9248;SDS011;4660;41.768;26.198;2023-10-19T09:40:09;5.72;;;3.55;;
9248;SDS011;4660;41.768;26.198;2023-10-19T09:42:41;6.93;;;3.70;;
9248;SDS011;4660;41.768;26.198;2023-10-19T09:45:13;3.78;;;3.20;;
9248;SDS011;4660;41.768;26.198;2023-10-19T09:47:45;4.32;;;3.03;;
9248;SDS011;4660;41.768;26.198;2023-10-19T09:50:15;5.45;;;2.60;;
9248;SDS011;4660;41.768;26.198;2023-10-19T09:52:41;6.82;;;2.97;;
9248;SDS011;4660;41.768;26.198;2023-10-19T09:55:12;2.95;;;2.28;;
9248;SDS011;4660;41.768;26.198;2023-10-19T09:57:52;2.38;;;2.08;;
9248;SDS011;4660;41.768;26.198;2023-10-19T10:00:28;4.50;;;2.33;;
9248;SDS011;4660;41.768;26.198;2023-10-19T10:02:57;4.32;;;2.08;;
9248;SDS011;4660;41.768;26.198;2023-10-19T10:10:44;4.13;;;2.17;;
9248;SDS011;4660;41.768;26.198;2023-10-19T10:13:35;8.10;;;2.70;;
9248;SDS011;4660;41.768;26.198;2023-10-19T10:16:06;3.83;;;2.08;;
9248;SDS011;4660;41.768;26.198;2023-10-19T10:18:31;9.13;;;2.60;;
9248;SDS011;4660;41.768;26.198;2023-10-19T10:21:42;2.88;;;1.90;;
9248;SDS011;4660;41.768;26.198;2023-10-19T10:23:56;3.05;;;2.10;;
9248;SDS011;4660;41.768;26.198;2023-10-19T10:26:23;5.22;;;2.35;;
9248;SDS011;4660;41.768;26.198;2023-10-19T10:31:35;3.08;;;2.20;;
9248;SDS011;4660;41.768;26.198;2023-10-19T10:34:08;10.27;;;6.35;;
9248;SDS011;4660;41.768;26.198;2023-10-19T10:36:56;2.47;;;2.13;;
9248;SDS011;4660;41.768;26.198;2023-10-19T10:39:27;3.03;;;2.13;;
9248;SDS011;4660;41.768;26.198;2023-10-19T10:41:59;5.85;;;1.88;;
9248;SDS011;4660;41.768;26.198;2023-10-19T10:44:38;2.85;;;1.77;;
9248;SDS011;4660;41.768;26.198;2023-10-19T10:47:20;4.55;;;1.80;;
9248;SDS011;4660;41.768;26.198;2023-10-19T10:49:54;4.13;;;2.47;;
9248;SDS011;4660;41.768;26.198;2023-10-19T10:52:34;2.85;;;2.25;;
9248;SDS011;4660;41.768;26.198;2023-10-19T10:55:06;2.17;;;1.60;;
9248;SDS011;4660;41.768;26.198;2023-10-19T10:57:36;3.28;;;1.88;;
9248;SDS011;4660;41.768;26.198;2023-10-19T11:00:09;3.42;;;1.92;;
9248;SDS011;4660;41.768;26.198;2023-10-19T11:02:58;4.03;;;2.63;;
9248;SDS011;4660;41.768;26.198;2023-10-19T11:05:36;2.35;;;1.98;;
9248;SDS011;4660;41.768;26.198;2023-10-19T11:08:06;4.72;;;2.15;;
9248;SDS011;4660;41.768;26.198;2023-10-19T11:10:40;3.60;;;2.00;;
9248;SDS011;4660;41.768;26.198;2023-10-19T11:13:08;2.10;;;1.92;;
9248;SDS011;4660;41.768;26.198;2023-10-19T11:15:36;1.73;;;1.60;;
9248;SDS011;4660;41.768;26.198;2023-10-19T11:18:05;3.08;;;1.90;;
9248;SDS011;4660;41.768;26.198;2023-10-19T11:20:34;1.90;;;1.70;;
9248;SDS011;4660;41.768;26.198;2023-10-19T11:23:01;2.50;;;1.80;;
9248;SDS011;4660;41.768;26.198;2023-10-19T11:25:27;2.70;;;1.90;;
9248;SDS011;4660;41.768;26.198;2023-10-19T11:28:02;2.30;;;1.80;;
9248;SDS011;4660;41.768;26.198;2023-10-19T11:30:41;2.95;;;1.90;;
9248;SDS011;4660;41.768;26.198;2023-10-19T11:33:07;1.70;;;1.50;;
9248;SDS011;4660;41.768;26.198;2023-10-19T11:35:33;5.97;;;1.85;;
9248;SDS011;4660;41.768;26.198;2023-10-19T11:38:02;2.47;;;2.13;;
9248;SDS011;4660;41.768;26.198;2023-10-19T11:40:29;2.00;;;1.80;;
9248;SDS011;4660;41.768;26.198;2023-10-19T11:42:54;3.05;;;2.03;;
9248;SDS011;4660;41.768;26.198;2023-10-19T11:45:25;3.88;;;3.00;;
9248;SDS011;4660;41.768;26.198;2023-10-19T11:47:54;2.42;;;1.90;;
9248;SDS011;4660;41.768;26.198;2023-10-19T11:50:20;2.88;;;1.70;;
9248;SDS011;4660;41.768;26.198;2023-10-19T11:52:45;5.90;;;2.10;;
9248;SDS011;4660;41.768;26.198;2023-10-19T11:55:12;3.08;;;1.80;;
9248;SDS011;4660;41.768;26.198;2023-10-19T11:57:44;4.25;;;1.65;;
9248;SDS011;4660;41.768;26.198;2023-10-19T12:00:10;3.13;;;2.10;;
9248;SDS011;4660;41.768;26.198;2023-10-19T12:02:39;3.42;;;2.00;;
9248;SDS011;4660;41.768;26.198;2023-10-19T12:05:07;2.33;;;1.80;;
9248;SDS011;4660;41.768;26.198;2023-10-19T12:07:36;5.68;;;4.70;;
9248;SDS011;4660;41.768;26.198;2023-10-19T12:10:03;3.05;;;2.75;;
9248;SDS011;4660;41.768;26.198;2023-10-19T12:12:30;2.33;;;1.90;;
9248;SDS011;4660;41.768;26.198;2023-10-19T12:14:56;3.60;;;2.25;;
9248;SDS011;4660;41.768;26.198;2023-10-19T12:17:23;3.30;;;2.65;;
9248;SDS011;4660;41.768;26.198;2023-10-19T12:19:51;1.67;;;1.58;;
9248;SDS011;4660;41.768;26.198;2023-10-19T12:22:17;3.05;;;1.63;;
9248;SDS011;4660;41.768;26.198;2023-10-19T12:24:46;2.83;;;1.50;;
9248;SDS011;4660;41.768;26.198;2023-10-19T12:27:12;2.78;;;2.05;;
9248;SDS011;4660;41.768;26.198;2023-10-19T12:29:39;3.05;;;2.03;;
9248;SDS011;4660;41.768;26.198;2023-10-19T12:32:04;1.95;;;1.77;;
9248;SDS011;4660;41.768;26.198;2023-10-19T12:34:31;2.63;;;1.77;;
9248;SDS011;4660;41.768;26.198;2023-10-19T12:36:56;4.72;;;1.83;;
9248;SDS011;4660;41.768;26.198;2023-10-19T12:39:24;1.98;;;1.83;;
9248;SDS011;4660;41.768;26.198;2023-10-19T12:42:10;2.42;;;1.80;;
9248;SDS011;4660;41.768;26.198;2023-10-19T12:44:36;2.72;;;2.08;;
9248;SDS011;4660;41.768;26.198;2023-10-19T12:47:07;2.92;;;1.70;;
9248;SDS011;4660;41.768;26.198;2023-10-19T12:49:40;5.38;;;2.28;;
9248;SDS011;4660;41.768;26.198;2023-10-19T12:52:07;2.42;;;1.90;;
9248;SDS011;4660;41.768;26.198;2023-10-19T12:54:34;27.50;;;19.98;;
9248;SDS011;4660;41.768;26.198;2023-10-19T12:57:01;25.50;;;20.05;;
9248;SDS011;4660;41.768;26.198;2023-10-19T12:59:29;2.83;;;2.55;;
9248;SDS011;4660;41.768;26.198;2023-10-19T13:02:06;2.22;;;2.03;;
9248;SDS011;4660;41.768;26.198;2023-10-19T13:04:40;2.35;;;2.15;;
9248;SDS011;4660;41.768;26.198;2023-10-19T13:07:07;1.88;;;1.67;;
9248;SDS011;4660;41.768;26.198;2023-10-19T13:09:35;3.88;;;2.35;;
9248;SDS011;4660;41.768;26.198;2023-10-19T13:12:01;2.30;;;2.03;;
9248;SDS011;4660;41.768;26.198;2023-10-19T13:14:27;3.72;;;2.00;;
9248;SDS011;4660;41.768;26.198;2023-10-19T13:16:55;1.85;;;1.70;;
9248;SDS011;4660;41.768;26.198;2023-10-19T13:19:21;2.22;;;2.03;;
9248;SDS011;4660;41.768;26.198;2023-10-19T13:21:50;10.88;;;8.98;;
9248;SDS011;4660;41.768;26.198;2023-10-19T13:24:18;2.80;;;2.30;;
9248;SDS011;4660;41.768;26.198;2023-10-19T13:26:47;3.65;;;2.55;;
9248;SDS011;4660;41.768;26.198;2023-10-19T13:29:16;2.28;;;2.08;;
9248;SDS011;4660;41.768;26.198;2023-10-19T13:31:45;2.42;;;1.77;;
9248;SDS011;4660;41.768;26.198;2023-10-19T13:34:15;1.90;;;1.80;;
9248;SDS011;4660;41.768;26.198;2023-10-19T13:36:41;4.85;;;2.80;;
9248;SDS011;4660;41.768;26.198;2023-10-19T13:39:11;4.30;;;2.40;;
9248;SDS011;4660;41.768;26.198;2023-10-19T13:41:42;3.45;;;2.65;;
9248;SDS011;4660;41.768;26.198;2023-10-19T13:44:18;2.00;;;1.90;;
9248;SDS011;4660;41.768;26.198;2023-10-19T13:46:53;2.83;;;2.22;;
9248;SDS011;4660;41.768;26.198;2023-10-19T13:49:19;2.20;;;2.00;;
9248;SDS011;4660;41.768;26.198;2023-10-19T13:51:48;2.90;;;2.20;;
9248;SDS011;4660;41.768;26.198;2023-10-19T13:54:14;3.03;;;2.38;;
9248;SDS011;4660;41.768;26.198;2023-10-19T13:56:41;4.65;;;2.10;;
9248;SDS011;4660;41.768;26.198;2023-10-19T13:59:11;2.42;;;1.95;;
9248;SDS011;4660;41.768;26.198;2023-10-19T14:01:40;2.30;;;1.90;;
9248;SDS011;4660;41.768;26.198;2023-10-19T14:04:07;2.45;;;2.25;;
9248;SDS011;4660;41.768;26.198;2023-10-19T14:06:35;2.08;;;1.92;;
9248;SDS011;4660;41.768;26.198;2023-10-19T14:09:02;17.63;;;14.68;;
9248;SDS011;4660;41.768;26.198;2023-10-19T14:11:30;12.65;;;11.32;;
9248;SDS011;4660;41.768;26.198;2023-10-19T14:13:56;4.40;;;3.65;;
9248;SDS011;4660;41.768;26.198;2023-10-19T14:16:23;2.42;;;2.00;;
9248;SDS011;4660;41.768;26.198;2023-10-19T14:18:51;3.58;;;2.55;;
9248;SDS011;4660;41.768;26.198;2023-10-19T14:21:17;2.88;;;1.80;;
9248;SDS011;4660;41.768;26.198;2023-10-19T14:24:06;2.38;;;2.17;;
9248;SDS011;4660;41.768;26.198;2023-10-19T14:26:34;5.25;;;2.42;;
9248;SDS011;4660;41.768;26.198;2023-10-19T14:29:00;5.00;;;3.20;;
9248;SDS011;4660;41.768;26.198;2023-10-19T14:31:31;2.75;;;2.20;;
9248;SDS011;4660;41.768;26.198;2023-10-19T14:33:59;2.47;;;1.90;;
9248;SDS011;4660;41.768;26.198;2023-10-19T14:36:25;3.65;;;2.60;;
9248;SDS011;4660;41.768;26.198;2023-10-19T14:38:51;2.28;;;2.08;;
9248;SDS011;4660;41.768;26.198;2023-10-19T14:41:16;2.97;;;1.90;;
9248;SDS011;4660;41.768;26.198;2023-10-19T14:43:43;3.05;;;2.75;;
9248;SDS011;4660;41.768;26.198;2023-10-19T14:46:11;2.47;;;1.92;;
9248;SDS011;4660;41.768;26.198;2023-10-19T14:48:36;3.30;;;2.47;;
9248;SDS011;4660;41.768;26.198;2023-10-19T14:51:02;3.67;;;2.40;;
9248;SDS011;4660;41.768;26.198;2023-10-19T14:53:30;2.90;;;2.20;;
9248;SDS011;4660;41.768;26.198;2023-10-19T14:56:00;2.63;;;2.40;;
9248;SDS011;4660;41.768;26.198;2023-10-19T14:58:26;4.15;;;2.20;;
9248;SDS011;4660;41.768;26.198;2023-10-19T15:00:56;2.92;;;2.67;;
9248;SDS011;4660;41.768;26.198;2023-10-19T15:03:33;2.70;;;2.47;;
9248;SDS011;4660;41.768;26.198;2023-10-19T15:06:01;4.20;;;3.80;;
9248;SDS011;4660;41.768;26.198;2023-10-19T15:08:29;7.93;;;6.95;;
9248;SDS011;4660;41.768;26.198;2023-10-19T15:10:57;4.45;;;2.88;;
9248;SDS011;4660;41.768;26.198;2023-10-19T15:13:23;3.88;;;3.40;;
9248;SDS011;4660;41.768;26.198;2023-10-19T15:15:51;2.42;;;2.20;;
9248;SDS011;4660;41.768;26.198;2023-10-19T15:18:17;2.63;;;2.42;;
9248;SDS011;4660;41.768;26.198;2023-10-19T15:20:43;6.20;;;2.40;;
9248;SDS011;4660;41.768;26.198;2023-10-19T15:23:12;5.97;;;3.70;;
9248;SDS011;4660;41.768;26.198;2023-10-19T15:25:38;2.60;;;2.40;;